Harmonyville, Vermont
Current Conditions -  °F | °C
As of 10:54 AM on Sunday 25 Jan 2015 (Local Time) from KVSF Reporting Station
Unknown Precip Unknown Precip  
Wind Chill: 14°   Ceiling: Unl
Heat Index: 26°   Visibility: 10mi
Dew Point:   Wind: 14mph
Humidity: 49%   Direction: 340°NNW
Pressure: 29.65"   Gusts: 23mph
Location:  43.0642°N, 72.6668°W
Report Text: KVSF 251554Z AUTO 34012G20KT 10SM UP FEW040 M03/M13 A2965 RMK AO2 UPB48 SLP049 P0000 T10331128 TSNO
Loading
Personal Weather Stations






























Interactive Weather Map New forecast layout! Learn more

10-Day Weather Forecast

Advertisements
Track Severe Weather on mobile